Crew | Aerofun Virtual



 METAR AND TAF INFORMATION
METAR FOR LGRP
ADDS - METARS form results

(1957 UTC 21 July 2019)
Data provider http://aviationweather.gov/metar/data/
 
METAR text: LGRP 211950Z 23012KT CAVOK 28/17 Q1008 NOSIG
Conditions at: LGRP (RHODES/DIAGORAS , GR) observed 1950 UTC 21 July 2019
Temperature: 28.0°C (82°F)
Dewpoint: 17.0°C (63°F) [RH = 51%]
Pressure (altimeter): 29.76 inches Hg (1008.0 mb)
Winds: from the SW (230 degrees) at 14 MPH (12 knots; 6.2 m/s)
Visibility: 6 or more miles (10+ km)
Ceiling: ceiling and visibility are OK
Clouds: unknown
Weather: no significant weather observed at this time

METAR text: LGRP 211920Z 23011KT CAVOK 28/17 Q1008 NOSIG
Conditions at: LGRP (RHODES/DIAGORAS , GR) observed 1920 UTC 21 July 2019
Temperature: 28.0°C (82°F)
Dewpoint: 17.0°C (63°F) [RH = 51%]
Pressure (altimeter): 29.76 inches Hg (1008.0 mb)
Winds: from the SW (230 degrees) at 13 MPH (11 knots; 5.7 m/s)
Visibility: 6 or more miles (10+ km)
Ceiling: ceiling and visibility are OK
Clouds: unknown
Weather: no significant weather observed at this time

Forecast for: LGRP (RHODES/DIAGORAS , GR)
Text: TAF LGRP 211700Z 2118/2218 24015KT 9999 FEW020
Forecast period: 1800 UTC 21 July 2019 to 1800 UTC 22 July 2019
Forecast type: FROM: standard forecast or significant change
Winds: from the WSW (240 degrees) at 17 MPH (15 knots; 7.7 m/s)
Visibility: 6 or more miles 10+ km)
Ceiling: at least 12,000 feet AGL
Clouds: few clouds at 2000 feet AGL
Weather: no significant weather forecast for this period
Text: TEMPO 2212/2218 25015G25KT
Forecast period: 1200 to 1800 UTC 22 July 2019
Forecast type: TEMPORARY: The following changes expected for less than half the time period
Winds: from the WSW (250 degrees) at 17 MPH (15 knots; 7.7 m/s)
gusting to 29 MPH (25 knots; 12.9 m/s)
Visibility: missing
Ceiling: unknown
Clouds: missing
Weather: no significant weather forecast for this period

 AIRPORT MAP

 RUNWAY INFORMATION
Runway 07 Runway length 10846 ft Runway width 148 ft
Runway elevation 16 ft Runway displaced threshold 0 ft Runway heading 70
Runway 25 Runway length 10846 ft Runway width 148 ft
Runway elevation 17 ft Runway displaced threshold 0 ft Runway heading 250

 AIRPORT FREQUENCIES
Type A/G Name RDO Frequency 563.7 MHZ
Type APP Name RODOS APP Frequency 118.25 MHZ
Type ATIS Name ATIS Frequency 126.35 MHZ
Type GND Name GND Frequency 121.7 MHZ
Type TWR Name TWR Frequency 118.2 MHZ

 AIRPORT NEAR NAVIGATION AIDS
Type VOR-DME Name Paradisi Frequency 108600 KHZ
Type VOR-DME Name Rodos Frequency 115800 KHZ
Type TACAN Name Rodos Frequency 117400 KHZ
Type NDB Name Rodos Frequency 339 KHZ